Time;durP1;ratioP1;P1;durP2;ratioP2;P2;SDS_P1;SDS_P2;PMS_P1;PMS_P2;Temp;Humidity;BMP_temperature;BMP_pressure;BME280_temperature;BME280_humidity;BME280_pressure;Samples;Min_cycle;Max_cycle;Signal;HPM_P1;HPM_P2
2024/04/15 00:00:43;;;;;;;8.67;6.07;;;;;;;17.44;60.55;95980.03;5367811;26;20347;-71
2024/04/15 00:03:08;;;;;;;10.03;5.90;;;;;;;17.44;60.50;95980.03;5367154;26;20440;-71
2024/04/15 00:05:33;;;;;;;9.70;4.90;;;;;;;17.36;60.80;95972.66;5364614;26;20892;-70
2024/04/15 00:07:59;;;;;;;6.00;5.40;;;;;;;17.38;60.96;95965.41;5366932;26;20229;-72
2024/04/15 00:10:24;;;;;;;8.60;5.30;;;;;;;17.34;60.81;95967.47;5366519;26;20858;-72
2024/04/15 00:12:52;;;;;;;9.30;6.07;;;;;;;17.29;60.88;95961.69;5366179;26;20241;-72
2024/04/15 00:15:18;;;;;;;5.73;5.23;;;;;;;17.32;60.85;95960.59;5366257;26;20288;-72
2024/04/15 00:17:43;;;;;;;13.03;5.93;;;;;;;17.28;60.80;95954.69;5366732;26;20440;-72
2024/04/15 00:20:09;;;;;;;6.00;5.40;;;;;;;17.27;60.97;95952.19;5366605;26;20225;-70
2024/04/15 00:22:35;;;;;;;6.17;5.53;;;;;;;17.09;61.53;95951.78;5365933;26;21055;-70
2024/04/15 00:25:01;;;;;;;8.47;5.27;;;;;;;17.13;61.38;95946.13;5365447;26;20459;-70
2024/04/15 00:27:26;;;;;;;6.93;5.07;;;;;;;17.10;61.55;95937.53;5366039;26;20524;-71
2024/04/15 00:29:51;;;;;;;15.47;5.43;;;;;;;17.22;60.80;95933.97;5364094;26;20295;-70
2024/04/15 00:32:17;;;;;;;6.43;5.83;;;;;;;17.09;61.16;95931.41;5366496;26;20665;-71
2024/04/15 00:34:42;;;;;;;7.33;5.70;;;;;;;17.08;61.14;95935.03;5365823;26;20233;-72
2024/04/15 00:37:08;;;;;;;6.43;4.93;;;;;;;16.99;61.39;95925.13;5366223;26;20324;-71
2024/04/15 00:39:33;;;;;;;9.40;5.93;;;;;;;16.92;61.73;95916.81;5366509;26;20362;-71
2024/04/15 00:41:59;;;;;;;5.73;5.10;;;;;;;16.92;61.49;95908.84;5366743;26;20217;-71
2024/04/15 00:44:34;;;;;;;5.97;4.93;;;;;;;16.87;61.92;95908.38;5366547;26;21078;-71
2024/04/15 00:47:02;;;;;;;6.40;5.80;;;;;;;16.84;61.93;95915.69;5365836;26;20263;-71
2024/04/15 00:49:29;;;;;;;7.17;5.87;;;;;;;16.80;62.60;95911.63;5366113;26;21437;-71
2024/04/15 00:51:56;;;;;;;6.47;5.43;;;;;;;16.86;62.42;95911.13;5366026;26;20504;-72
2024/04/15 00:54:21;;;;;;;8.60;5.60;;;;;;;16.86;62.46;95916.44;5365820;26;20468;-71
2024/04/15 00:56:47;;;;;;;7.10;5.30;;;;;;;16.87;62.80;95907.53;5365861;26;21218;-72
2024/04/15 00:59:13;;;;;;;7.20;6.60;;;;;;;16.82;62.73;95899.06;5366422;26;20221;-71
2024/04/15 01:01:39;;;;;;;6.57;5.97;;;;;;;16.86;62.64;95906.66;5366500;26;20300;-70
2024/04/15 01:04:04;;;;;;;10.40;6.70;;;;;;;16.83;62.46;95898.97;5363237;26;20631;-71
2024/04/15 01:06:30;;;;;;;8.27;6.00;;;;;;;16.77;62.50;95904.72;5366696;26;20342;-70
2024/04/15 01:08:55;;;;;;;7.87;6.27;;;;;;;16.72;62.91;95894.47;5366560;26;20640;-70
2024/04/15 01:11:21;;;;;;;10.77;6.80;;;;;;;16.60;63.11;95884.78;5367043;26;20221;-71
2024/04/15 01:13:46;;;;;;;10.20;6.13;;;;;;;16.51;63.38;95885.47;5366975;26;20276;-71
2024/04/15 01:16:12;;;;;;;9.60;6.90;;;;;;;16.44;63.61;95884.25;5366362;26;20226;-70
2024/04/15 01:18:37;;;;;;;7.83;7.00;;;;;;;16.42;63.78;95886.19;5366390;26;20339;-70
2024/04/15 01:21:03;;;;;;;6.87;6.27;;;;;;;16.44;63.80;95877.19;5367155;26;21045;-70
2024/04/15 01:23:39;;;;;;;7.07;6.43;;;;;;;16.40;63.72;95878.38;5358263;26;20230;-70
2024/04/15 01:26:05;;;;;;;6.93;6.23;;;;;;;16.57;63.03;95892.97;5334946;26;20500;-71
2024/04/15 01:28:30;;;;;;;5.80;5.30;;;;;;;16.49;63.13;95888.25;5335481;26;21645;-71
2024/04/15 01:30:56;;;;;;;7.43;5.53;;;;;;;16.51;63.12;95886.34;5336766;26;20223;-72
2024/04/15 01:33:21;;;;;;;6.60;5.90;;;;;;;16.49;63.23;95885.63;5337652;26;20293;-71
2024/04/15 01:35:46;;;;;;;6.33;5.73;;;;;;;16.53;62.63;95888.84;5339816;26;20234;-71
2024/04/15 01:38:12;;;;;;;7.80;6.80;;;;;;;16.28;63.49;95880.13;5342963;26;20597;-71
2024/04/15 01:40:37;;;;;;;7.80;6.20;;;;;;;16.27;63.06;95880.22;5342778;26;20728;-70
2024/04/15 01:43:03;;;;;;;8.13;5.67;;;;;;;16.38;62.64;95885.56;5341915;26;20239;-70
2024/04/15 01:45:29;;;;;;;14.33;6.50;;;;;;;16.27;62.80;95888.19;5341752;26;20239;-70
2024/04/15 01:47:54;;;;;;;8.90;6.37;;;;;;;16.22;63.45;95891.16;5336568;26;20271;-70
2024/04/15 01:50:20;;;;;;;6.87;6.17;;;;;;;16.33;62.55;95882.44;5335148;26;20512;-71
2024/04/15 01:52:46;;;;;;;8.50;6.13;;;;;;;16.38;62.50;95869.69;5335224;26;20222;-71
2024/04/15 01:55:12;;;;;;;6.80;6.10;;;;;;;16.32;63.23;95871.94;5335120;26;20524;-71
2024/04/15 01:57:37;;;;;;;8.40;6.60;;;;;;;16.32;63.15;95877.25;5336044;26;20226;-71
2024/04/15 02:00:04;;;;;;;6.83;6.13;;;;;;;16.31;63.09;95865.81;5333844;26;20223;-70
2024/04/15 02:02:29;;;;;;;7.50;6.40;;;;;;;16.39;62.75;95866.06;5335703;26;20218;-70
2024/04/15 02:04:55;;;;;;;9.80;6.00;;;;;;;16.36;63.45;95866.31;5334383;26;20528;-70
2024/04/15 02:07:20;;;;;;;6.63;6.03;;;;;;;16.38;63.29;95850.31;5335617;26;20884;-71
2024/04/15 02:09:46;;;;;;;7.70;6.97;;;;;;;16.29;63.24;95844.75;5335792;26;20266;-71
2024/04/15 02:12:11;;;;;;;9.60;7.03;;;;;;;16.14;64.33;95866.25;5335597;26;20747;-71
2024/04/15 02:14:36;;;;;;;6.77;6.17;;;;;;;16.08;64.62;95896.63;5335466;26;20269;-71
2024/04/15 02:17:03;;;;;;;7.37;6.70;;;;;;;16.11;64.40;95891.16;5335107;26;20265;-71
2024/04/15 02:19:31;;;;;;;7.50;6.80;;;;;;;15.96;64.44;95868.44;5335850;26;20484;-71
2024/04/15 02:21:57;;;;;;;9.80;7.03;;;;;;;15.98;64.70;95877.13;5335084;26;20584;-71
2024/04/15 02:24:22;;;;;;;8.47;7.67;;;;;;;16.13;64.77;95869.84;5333406;26;20501;-71
2024/04/15 02:26:47;;;;;;;7.20;6.50;;;;;;;16.13;64.38;95872.47;5335322;26;20350;-71
2024/04/15 02:29:13;;;;;;;10.37;7.13;;;;;;;16.11;63.87;95877.91;5333756;26;20230;-71
2024/04/15 02:31:38;;;;;;;7.97;7.17;;;;;;;16.08;64.45;95872.81;5335736;26;21111;-70
2024/04/15 02:34:04;;;;;;;7.20;6.50;;;;;;;16.15;64.44;95874.06;5334772;26;20347;-70
2024/04/15 02:36:29;;;;;;;7.77;6.97;;;;;;;16.18;63.95;95876.50;5335991;26;20273;-71
2024/04/15 02:38:54;;;;;;;7.53;6.83;;;;;;;16.01;64.94;95884.81;5336652;26;20377;-71
2024/04/15 02:41:20;;;;;;;7.83;6.40;;;;;;;15.88;65.34;95890.19;5338500;26;20273;-71
2024/04/15 02:43:45;;;;;;;7.83;7.03;;;;;;;15.71;65.96;95872.91;5334904;26;20281;-72
2024/04/15 02:46:12;;;;;;;8.77;7.87;;;;;;;15.86;65.57;95869.13;5335786;26;20457;-72
2024/04/15 02:48:38;;;;;;;7.80;6.60;;;;;;;15.79;65.90;95865.22;5336297;26;20525;-72
2024/04/15 02:51:03;;;;;;;8.07;7.27;;;;;;;15.92;65.90;95859.03;5336563;26;20449;-72
2024/04/15 02:53:31;;;;;;;7.73;6.70;;;;;;;15.99;65.45;95861.13;5334853;26;20218;-70
2024/04/15 02:55:57;;;;;;;9.53;6.90;;;;;;;15.98;65.12;95866.53;5334925;26;20234;-72
2024/04/15 02:58:22;;;;;;;8.60;6.70;;;;;;;16.14;65.19;95863.59;5335447;26;20907;-70
2024/04/15 03:00:47;;;;;;;8.40;7.50;;;;;;;16.03;66.25;95859.09;5335886;26;20219;-71
2024/04/15 03:03:13;;;;;;;11.03;6.97;;;;;;;16.06;66.05;95866.78;5335693;26;20222;-71
2024/04/15 03:05:43;;;;;;;8.07;6.43;;;;;;;16.03;66.08;95864.38;5335708;26;20277;-71
2024/04/15 03:08:09;;;;;;;7.60;6.83;;;;;;;16.16;65.57;95866.94;5335331;26;20617;-71
2024/04/15 03:10:34;;;;;;;7.67;6.63;;;;;;;16.05;65.80;95865.13;5334978;26;20445;-71
2024/04/15 03:13:00;;;;;;;8.60;6.77;;;;;;;16.15;65.82;95858.16;5335319;26;20296;-70
2024/04/15 03:15:25;;;;;;;6.83;6.23;;;;;;;16.09;65.56;95854.19;5334951;26;20682;-72
2024/04/15 03:17:51;;;;;;;8.80;6.17;;;;;;;15.95;66.34;95851.72;5335167;26;20828;-70
2024/04/15 03:20:17;;;;;;;7.33;6.60;;;;;;;15.80;67.16;95855.50;5334434;26;20724;-71
2024/04/15 03:22:49;;;;;;;7.43;5.90;;;;;;;15.81;66.71;95857.19;5334287;26;20724;-69
2024/04/15 03:25:17;;;;;;;12.10;6.30;;;;;;;15.62;67.63;95861.16;5333834;26;20457;-70
2024/04/15 03:27:42;;;;;;;8.10;6.80;;;;;;;15.47;68.12;95859.59;5334722;26;20612;-70
2024/04/15 03:30:08;;;;;;;8.07;7.10;;;;;;;15.43;68.01;95856.34;5334228;26;20619;-71
2024/04/15 03:32:34;;;;;;;6.93;6.23;;;;;;;15.52;68.01;95862.78;5334220;26;20227;-71
2024/04/15 03:34:59;;;;;;;6.80;6.03;;;;;;;15.75;67.31;95866.41;5333945;26;20528;-71
2024/04/15 03:37:25;;;;;;;7.00;6.30;;;;;;;15.87;66.20;95869.97;5334004;26;20807;-70
2024/04/15 03:39:50;;;;;;;7.83;6.13;;;;;;;15.96;66.68;95868.44;5334405;26;20320;-71
2024/04/15 03:42:15;;;;;;;9.67;5.97;;;;;;;16.02;65.85;95868.84;5333108;26;20269;-71
2024/04/15 03:44:41;;;;;;;6.70;6.00;;;;;;;16.14;66.07;95864.44;5334250;26;20307;-70
2024/04/15 03:47:06;;;;;;;7.27;6.13;;;;;;;16.19;65.60;95857.00;5333051;26;20382;-71
2024/04/15 03:49:32;;;;;;;6.43;5.57;;;;;;;16.19;65.62;95854.34;5334597;26;20261;-71
2024/04/15 03:51:57;;;;;;;10.57;5.50;;;;;;;16.09;66.11;95861.28;5334019;26;20682;-70
2024/04/15 03:54:22;;;;;;;11.77;6.93;;;;;;;15.96;66.13;95853.41;5333797;26;20243;-68
2024/04/15 03:56:48;;;;;;;7.23;6.27;;;;;;;15.85;65.92;95856.00;5334308;26;20412;-71
2024/04/15 03:59:13;;;;;;;7.10;6.43;;;;;;;15.90;66.17;95842.41;5334628;26;20628;-69
2024/04/15 04:01:39;;;;;;;7.30;6.40;;;;;;;15.96;65.50;95849.91;5333997;26;20226;-70
2024/04/15 04:04:04;;;;;;;6.50;5.90;;;;;;;15.96;65.52;95841.97;5333327;26;20324;-70
2024/04/15 04:06:30;;;;;;;11.80;6.80;;;;;;;16.00;64.46;95822.28;5334559;26;20356;-71
2024/04/15 04:08:56;;;;;;;11.40;6.73;;;;;;;15.89;64.57;95823.06;5333656;26;20234;-71
2024/04/15 04:11:22;;;;;;;7.23;6.27;;;;;;;15.91;64.83;95813.22;5333888;26;20822;-70
2024/04/15 04:13:47;;;;;;;14.17;7.07;;;;;;;15.82;64.69;95813.91;5333155;26;20365;-71
2024/04/15 04:16:13;;;;;;;8.57;6.00;;;;;;;15.75;64.90;95802.91;5333884;26;20242;-70
2024/04/15 04:18:38;;;;;;;10.20;7.10;;;;;;;15.84;64.80;95820.75;5340769;26;20443;-70
2024/04/15 04:21:13;;;;;;;9.77;6.90;;;;;;;15.87;64.78;95820.56;5342187;26;20296;-70
2024/04/15 04:23:38;;;;;;;7.70;6.97;;;;;;;15.63;65.93;95814.38;5350995;26;20279;-70
2024/04/15 04:26:04;;;;;;;12.47;6.43;;;;;;;15.62;66.02;95808.25;5384946;26;20554;-71
2024/04/15 04:28:29;;;;;;;9.90;7.13;;;;;;;15.55;66.40;95800.88;5371042;26;20237;-71
2024/04/15 04:31:00;;;;;;;7.23;6.50;;;;;;;15.56;65.54;95797.28;5360584;26;20280;-71
2024/04/15 04:33:26;;;;;;;9.67;6.90;;;;;;;15.64;65.97;95814.28;5371021;26;20237;-69
2024/04/15 04:35:51;;;;;;;9.60;6.70;;;;;;;15.65;65.73;95804.53;5350500;26;20469;-71
2024/04/15 04:38:16;;;;;;;8.43;6.40;;;;;;;15.60;66.03;95804.03;5367703;26;20257;-70
2024/04/15 04:40:42;;;;;;;6.83;6.13;;;;;;;15.62;65.21;95796.84;5378481;26;20764;-72
2024/04/15 04:43:07;;;;;;;7.90;6.37;;;;;;;15.71;64.79;95798.84;5368978;26;20291;-71
2024/04/15 04:45:33;;;;;;;12.23;6.73;;;;;;;15.85;64.55;95803.94;5365195;26;20234;-72
2024/04/15 04:47:58;;;;;;;12.40;6.30;;;;;;;15.83;63.97;95802.38;5358325;26;20690;-71
2024/04/15 04:50:24;;;;;;;13.43;7.70;;;;;;;15.77;64.31;95785.13;5357794;26;20311;-71
2024/04/15 04:52:49;;;;;;;27.33;7.90;;;;;;;15.75;64.33;95794.97;5359353;26;20233;-71
2024/04/15 04:55:15;;;;;;;9.73;6.57;;;;;;;15.84;64.00;95798.75;5359967;26;20414;-71
2024/04/15 04:57:40;;;;;;;9.87;6.87;;;;;;;15.85;63.97;95795.13;5360531;26;20724;-72
2024/04/15 05:00:07;;;;;;;8.93;7.10;;;;;;;15.88;64.06;95798.41;5368556;26;20225;-71
2024/04/15 05:02:32;;;;;;;12.70;6.83;;;;;;;15.97;63.81;95809.25;5360438;26;20288;-72
2024/04/15 05:04:57;;;;;;;17.30;8.93;;;;;;;15.92;63.79;95822.84;5374127;26;20471;-71
2024/04/15 05:07:23;;;;;;;16.90;7.90;;;;;;;15.92;64.70;95827.28;5370529;26;20307;-69
2024/04/15 05:09:48;;;;;;;23.23;8.80;;;;;;;15.79;65.16;95830.00;5367168;26;20621;-71
2024/04/15 05:12:14;;;;;;;21.30;8.40;;;;;;;15.87;65.03;95833.78;5366255;26;20279;-72
2024/04/15 05:14:39;;;;;;;18.73;6.87;;;;;;;15.97;65.32;95830.41;5351984;26;20526;-71
2024/04/15 05:17:05;;;;;;;13.73;6.77;;;;;;;15.96;65.17;95837.53;5370068;26;20233;-72
2024/04/15 05:19:30;;;;;;;14.93;8.20;;;;;;;16.11;64.97;95832.91;5364769;26;20260;-71
2024/04/15 05:21:55;;;;;;;6.73;5.83;;;;;;;15.98;65.88;95842.72;5370463;26;20413;-69
2024/04/15 05:24:21;;;;;;;14.00;6.50;;;;;;;15.96;66.04;95834.03;5347258;26;20384;-72
2024/04/15 05:26:46;;;;;;;12.13;6.60;;;;;;;16.00;66.27;95838.16;5353433;26;20584;-71
2024/04/15 05:29:12;;;;;;;7.70;6.00;;;;;;;15.97;65.98;95848.94;5353416;26;20247;-71
2024/04/15 05:31:37;;;;;;;12.50;6.13;;;;;;;15.91;66.13;95839.69;5353245;26;20333;-70
2024/04/15 05:34:03;;;;;;;15.03;5.90;;;;;;;15.91;66.53;95822.97;5369365;26;20267;-69
2024/04/15 05:36:28;;;;;;;10.47;5.93;;;;;;;15.75;67.52;95817.94;5354675;26;20242;-72
2024/04/15 05:38:53;;;;;;;10.33;6.60;;;;;;;15.54;68.66;95818.53;5345792;26;20454;-71
2024/04/15 05:41:19;;;;;;;11.90;6.63;;;;;;;15.58;67.98;95827.94;5361065;26;20295;-71
2024/04/15 05:43:44;;;;;;;11.07;6.63;;;;;;;15.40;69.02;95835.41;5349961;26;20245;-70
2024/04/15 05:46:10;;;;;;;8.57;6.10;;;;;;;15.66;68.46;95843.22;5364426;26;20249;-71
2024/04/15 05:48:36;;;;;;;8.00;6.30;;;;;;;15.60;68.43;95825.19;5356196;26;20275;-70
2024/04/15 05:51:02;;;;;;;6.43;5.80;;;;;;;15.48;69.59;95831.38;5362090;26;20293;-70
2024/04/15 05:53:27;;;;;;;7.27;6.20;;;;;;;15.46;69.03;95824.38;5353394;26;20518;-71
2024/04/15 05:55:53;;;;;;;11.83;7.17;;;;;;;15.52;70.01;95820.47;5357484;26;20233;-71
2024/04/15 05:58:18;;;;;;;15.87;7.40;;;;;;;15.59;70.02;95828.78;5358222;26;20288;-71
2024/04/15 06:00:44;;;;;;;11.83;8.70;;;;;;;15.66;69.77;95827.38;5362398;26;20553;-72
2024/04/15 06:03:09;;;;;;;9.10;6.63;;;;;;;15.67;69.67;95824.63;5352057;26;20328;-72
2024/04/15 06:05:35;;;;;;;8.20;7.40;;;;;;;15.78;69.74;95817.72;5353999;26;20263;-72
2024/04/15 06:08:00;;;;;;;6.83;6.13;;;;;;;15.69;69.51;95811.28;5359697;26;20386;-71
2024/04/15 06:10:25;;;;;;;10.60;6.77;;;;;;;15.71;70.46;95812.06;5365504;26;20217;-72
2024/04/15 06:12:51;;;;;;;12.53;7.27;;;;;;;15.74;70.25;95805.69;5355355;26;20385;-72
2024/04/15 06:15:16;;;;;;;12.60;6.23;;;;;;;15.78;70.37;95817.72;5359067;26;20233;-71
2024/04/15 06:17:42;;;;;;;8.83;7.63;;;;;;;15.85;70.56;95826.88;5347688;26;20238;-71
2024/04/15 06:20:08;;;;;;;9.40;6.03;;;;;;;15.81;70.92;95828.09;5359280;26;20238;-73
2024/04/15 06:22:33;;;;;;;7.60;6.30;;;;;;;15.82;71.16;95820.03;5365011;26;20221;-72
2024/04/15 06:24:58;;;;;;;7.67;6.60;;;;;;;15.78;70.39;95808.00;5364593;26;20230;-72
2024/04/15 06:27:24;;;;;;;9.63;6.47;;;;;;;15.85;70.64;95814.53;5366987;26;20249;-71
2024/04/15 06:29:49;;;;;;;10.77;6.60;;;;;;;15.82;70.66;95820.03;5360324;26;20272;-72
2024/04/15 06:32:15;;;;;;;7.67;6.77;;;;;;;15.78;70.64;95821.22;5367259;26;20264;-72
2024/04/15 06:34:40;;;;;;;8.50;6.73;;;;;;;15.70;70.95;95820.06;5365868;26;20230;-72
2024/04/15 06:37:06;;;;;;;10.60;6.47;;;;;;;15.74;70.56;95817.13;5366422;26;20229;-72
2024/04/15 06:39:31;;;;;;;17.77;6.83;;;;;;;15.84;70.93;95811.97;5364162;26;20233;-73
2024/04/15 06:41:56;;;;;;;13.33;6.67;;;;;;;15.76;71.06;95803.78;5361007;26;20261;-72
2024/04/15 06:44:22;;;;;;;12.70;7.20;;;;;;;15.86;70.97;95808.25;5366998;26;20229;-72
2024/04/15 06:46:47;;;;;;;12.87;7.43;;;;;;;15.91;70.80;95812.38;5370668;26;20743;-72
2024/04/15 06:49:13;;;;;;;12.07;6.00;;;;;;;15.97;70.28;95803.97;5368663;26;20334;-73
2024/04/15 06:51:39;;;;;;;9.23;6.50;;;;;;;16.01;70.85;95810.72;5368972;26;20217;-73
2024/04/15 06:54:05;;;;;;;11.53;7.47;;;;;;;15.88;71.47;95813.44;5357533;26;20324;-72
2024/04/15 06:56:32;;;;;;;12.93;7.70;;;;;;;15.92;71.70;95814.91;5368506;26;20238;-74
2024/04/15 06:58:57;;;;;;;10.97;6.43;;;;;;;15.96;71.65;95826.09;5368697;26;20225;-72
2024/04/15 07:01:22;;;;;;;7.40;6.30;;;;;;;15.87;71.98;95819.69;5367092;26;20580;-71
2024/04/15 07:03:48;;;;;;;15.63;8.50;;;;;;;15.86;72.30;95824.13;5367750;26;20233;-71
2024/04/15 07:06:13;;;;;;;8.50;6.80;;;;;;;15.72;72.55;95824.31;5366601;26;20230;-71
2024/04/15 07:08:39;;;;;;;15.43;11.30;;;;;;;15.81;73.00;95826.28;5362465;26;20338;-69
2024/04/15 07:11:04;;;;;;;11.33;7.20;;;;;;;15.79;72.80;95833.47;5368594;26;20233;-72
2024/04/15 07:13:33;;;;;;;13.13;7.17;;;;;;;15.87;71.79;95835.56;5368550;26;20293;-71
2024/04/15 07:15:58;;;;;;;20.37;8.20;;;;;;;15.93;72.32;95831.63;5368694;26;20712;-71
2024/04/15 07:18:23;;;;;;;7.60;6.10;;;;;;;15.85;72.96;95819.81;5365101;26;20460;-72
2024/04/15 07:20:49;;;;;;;12.87;7.30;;;;;;;15.90;72.82;95821.25;5369281;26;20229;-71
2024/04/15 07:23:14;;;;;;;12.17;7.47;;;;;;;15.84;72.69;95812.81;5366771;26;20823;-71
2024/04/15 07:25:40;;;;;;;15.23;7.23;;;;;;;15.98;72.21;95821.53;5368218;26;20257;-73
2024/04/15 07:28:05;;;;;;;7.43;6.30;;;;;;;15.98;72.44;95817.09;5362231;26;20313;-73
2024/04/15 07:30:30;;;;;;;13.90;7.60;;;;;;;16.04;72.90;95818.44;5364153;26;20412;-72
2024/04/15 07:32:56;;;;;;;9.03;6.80;;;;;;;16.06;73.04;95817.38;5371968;26;20233;-71
2024/04/15 07:35:22;;;;;;;13.90;6.93;;;;;;;16.07;72.92;95811.09;5373569;26;20234;-71
2024/04/15 07:37:47;;;;;;;10.70;7.90;;;;;;;16.12;73.78;95810.75;5371520;26;20234;-71
2024/04/15 07:40:13;;;;;;;20.00;8.20;;;;;;;16.24;73.34;95814.28;5372652;26;20759;-70
2024/04/15 07:42:41;;;;;;;10.63;7.17;;;;;;;16.25;72.41;95814.19;5370871;26;20234;-71
2024/04/15 07:45:07;;;;;;;8.47;5.87;;;;;;;16.35;67.78;95806.38;5366539;26;20237;-70
2024/04/15 07:47:32;;;;;;;9.93;5.93;;;;;;;16.29;68.34;95802.38;5367042;26;20444;-71
2024/04/15 07:49:58;;;;;;;5.97;5.30;;;;;;;16.55;67.50;95790.75;5362648;26;20510;-68
2024/04/15 07:52:23;;;;;;;5.13;4.63;;;;;;;16.51;67.52;95798.94;5354082;26;20343;-71
2024/04/15 07:54:49;;;;;;;9.20;4.00;;;;;;;16.59;66.27;95800.16;5357871;26;20781;-70
2024/04/15 07:57:14;;;;;;;7.43;5.00;;;;;;;16.68;64.99;95799.44;5364783;26;20300;-70
2024/04/15 07:59:40;;;;;;;7.10;3.70;;;;;;;16.59;63.34;95813.41;5367836;26;20566;-70
2024/04/15 08:02:05;;;;;;;4.13;3.73;;;;;;;16.50;62.64;95815.78;5369936;26;20334;-69
2024/04/15 08:04:31;;;;;;;4.97;3.60;;;;;;;16.39;62.26;95818.41;5365357;26;20241;-70
2024/04/15 08:06:56;;;;;;;12.63;3.63;;;;;;;16.40;61.57;95820.09;5357910;26;21157;-72
2024/04/15 08:09:21;;;;;;;5.10;3.60;;;;;;;16.42;60.62;95822.66;5365559;26;20218;-71
2024/04/15 08:11:47;;;;;;;4.37;3.00;;;;;;;16.33;59.82;95826.81;5367787;26;20346;-70
2024/04/15 08:14:12;;;;;;;6.60;3.40;;;;;;;16.24;60.17;95838.94;5379430;26;20380;-71
2024/04/15 08:16:38;;;;;;;5.20;3.60;;;;;;;16.17;60.04;95840.38;5367188;26;20771;-71
2024/04/15 08:19:03;;;;;;;7.83;3.40;;;;;;;16.09;60.46;95846.25;5366861;26;20268;-71
2024/04/15 08:21:29;;;;;;;4.60;3.17;;;;;;;16.13;59.59;95830.97;5367550;26;20870;-71
2024/04/15 08:23:54;;;;;;;3.60;2.70;;;;;;;16.05;59.45;95834.19;5364288;26;20308;-70
2024/04/15 08:26:19;;;;;;;5.50;2.80;;;;;;;15.92;60.69;95828.16;5365927;26;20352;-71
2024/04/15 08:28:45;;;;;;;5.83;3.07;;;;;;;15.98;61.13;95832.13;5365038;26;20249;-71
2024/04/15 08:31:10;;;;;;;2.97;2.67;;;;;;;15.89;61.11;95825.72;5367220;26;20226;-70
2024/04/15 08:33:36;;;;;;;3.20;2.20;;;;;;;15.75;61.10;95842.59;5366504;26;20969;-70
2024/04/15 08:36:02;;;;;;;4.77;2.73;;;;;;;15.74;61.42;95846.22;5366950;26;20241;-71
2024/04/15 08:38:27;;;;;;;5.33;2.63;;;;;;;15.75;60.84;95850.53;5367049;26;20229;-71
2024/04/15 08:40:57;;;;;;;11.60;3.43;;;;;;;15.55;63.09;95828.16;5366972;26;20279;-71
2024/04/15 08:43:25;;;;;;;8.07;3.47;;;;;;;15.58;64.11;95827.94;5362569;26;20332;-71
2024/04/15 08:46:04;;;;;;;11.30;3.20;;;;;;;15.53;65.25;95826.59;5385622;26;20452;-68
2024/04/15 08:48:32;;;;;;;6.70;3.70;;;;;;;15.45;65.27;95837.72;5366868;26;21467;-71
2024/04/15 08:50:59;;;;;;;6.20;2.90;;;;;;;15.36;66.58;95836.59;5358083;26;20465;-70
2024/04/15 08:53:27;;;;;;;12.70;3.90;;;;;;;15.24;66.05;95829.53;5366352;26;20448;-70
2024/04/15 08:55:52;;;;;;;9.10;4.70;;;;;;;15.19;66.46;95821.09;5367111;26;21500;-72
2024/04/15 08:58:18;;;;;;;9.40;4.00;;;;;;;15.29;66.67;95824.78;5366494;26;20443;-70
2024/04/15 09:00:45;;;;;;;8.40;3.27;;;;;;;15.38;66.84;95831.19;5367232;26;20646;-71
2024/04/15 09:03:11;;;;;;;6.60;3.37;;;;;;;15.57;64.66;95825.41;5361331;26;20519;-71
2024/04/15 09:05:37;;;;;;;5.40;3.40;;;;;;;15.52;65.17;95832.81;5353662;26;20460;-71
2024/04/15 09:08:02;;;;;;;9.53;3.53;;;;;;;15.51;65.14;95837.28;5367428;26;20496;-70
2024/04/15 09:10:28;;;;;;;11.40;3.40;;;;;;;15.50;65.48;95826.81;5367060;26;20221;-71
2024/04/15 09:12:56;;;;;;;9.73;4.20;;;;;;;15.42;65.61;95822.91;5364089;26;20296;-72
2024/04/15 09:15:22;;;;;;;8.03;3.63;;;;;;;15.70;64.65;95810.34;5364140;26;20245;-72
2024/04/15 09:17:47;;;;;;;10.60;4.43;;;;;;;15.67;65.55;95802.63;5364284;26;20508;-71
2024/04/15 09:20:13;;;;;;;15.83;4.93;;;;;;;15.66;65.00;95798.28;5365137;26;20333;-70
2024/04/15 09:22:39;;;;;;;5.93;4.23;;;;;;;15.43;65.84;95798.16;5366056;26;20798;-71
2024/04/15 09:25:06;;;;;;;4.27;3.37;;;;;;;15.18;68.02;95796.44;5364976;26;20464;-70
2024/04/15 09:27:31;;;;;;;6.20;4.63;;;;;;;15.18;67.93;95795.63;5367167;26;20296;-71
2024/04/15 09:29:58;;;;;;;5.37;3.30;;;;;;;14.75;68.58;95788.94;5367813;26;20557;-71
2024/04/15 09:32:24;;;;;;;5.70;3.50;;;;;;;15.04;68.03;95771.00;5350564;26;20295;-71
2024/04/15 09:34:59;;;;;;;5.50;3.67;;;;;;;14.76;68.17;95771.28;5365846;26;20456;-71
2024/04/15 09:37:24;;;;;;;4.50;3.70;;;;;;;14.98;67.72;95762.69;5366379;26;20808;-71
2024/04/15 09:39:51;;;;;;;7.70;3.87;;;;;;;14.86;67.69;95772.34;5367340;26;20531;-71
2024/04/15 09:42:18;;;;;;;7.17;3.20;;;;;;;14.71;68.22;95774.25;5366861;26;20245;-71
2024/04/15 09:44:46;;;;;;;4.70;3.10;;;;;;;14.89;67.81;95761.56;5380542;26;20448;-71
2024/04/15 09:47:13;;;;;;;9.73;4.10;;;;;;;14.96;67.48;95756.69;5391487;26;20538;-71
2024/04/15 09:49:38;;;;;;;6.10;3.80;;;;;;;15.13;67.66;95768.69;5391440;26;20448;-71
2024/04/15 09:52:06;;;;;;;5.60;3.60;;;;;;;15.34;66.66;95767.13;5381383;26;20527;-71
2024/04/15 09:54:32;;;;;;;10.33;4.00;;;;;;;15.37;66.03;95753.66;5370318;26;20226;-71
2024/04/15 09:57:12;;;;;;;6.37;3.47;;;;;;;15.28;67.00;95750.84;5368654;26;20508;-71
2024/04/15 09:59:39;;;;;;;7.90;3.53;;;;;;;15.34;67.34;95740.69;5370258;26;21401;-72
2024/04/15 10:02:15;;;;;;;6.53;3.63;;;;;;;15.37;67.81;95737.78;5369640;26;20570;-71
2024/04/15 10:04:44;;;;;;;7.90;3.50;;;;;;;15.35;67.98;95747.63;5369129;26;20511;-72
2024/04/15 10:07:11;;;;;;;5.70;3.93;;;;;;;15.37;69.13;95734.31;5368625;26;20530;-70
2024/04/15 10:09:37;;;;;;;7.80;4.10;;;;;;;15.22;69.73;95741.59;5369268;26;20448;-71
2024/04/15 10:12:04;;;;;;;7.40;4.10;;;;;;;15.53;68.97;95740.16;5369001;26;21091;-71
2024/04/15 10:14:30;;;;;;;8.00;4.27;;;;;;;15.48;69.21;95733.53;5368281;26;20444;-72
2024/04/15 10:16:55;;;;;;;16.23;5.60;;;;;;;15.64;68.45;95734.09;5366292;26;20813;-71
2024/04/15 10:19:33;;;;;;;12.43;4.53;;;;;;;15.67;67.63;95736.50;5366835;26;20526;-71
2024/04/15 10:22:00;;;;;;;8.63;4.83;;;;;;;15.80;67.91;95747.88;5354854;26;20234;-72
2024/04/15 10:24:25;;;;;;;8.17;4.30;;;;;;;15.98;67.41;95737.69;5364414;26;21353;-71
2024/04/15 10:26:56;;;;;;;11.10;4.53;;;;;;;16.02;67.73;95736.50;5363898;26;20566;-71
2024/04/15 10:29:24;;;;;;;15.00;5.13;;;;;;;16.05;66.76;95738.09;5355058;26;20298;-71
2024/04/15 10:31:51;;;;;;;9.70;4.70;;;;;;;16.10;66.46;95733.28;5374280;26;20864;-71
2024/04/15 10:34:16;;;;;;;7.87;4.10;;;;;;;16.16;66.24;95731.94;5362556;26;20587;-71
2024/04/15 10:36:43;;;;;;;6.83;3.67;;;;;;;16.01;66.82;95745.41;5353847;26;20472;-70
2024/04/15 10:39:15;;;;;;;5.33;4.57;;;;;;;16.14;67.15;95760.38;5374772;26;20257;-71
2024/04/15 10:41:43;;;;;;;5.90;4.40;;;;;;;16.06;66.38;95756.50;5373328;26;20471;-70
2024/04/15 10:44:09;;;;;;;5.97;5.20;;;;;;;16.02;66.87;95747.09;5366797;26;20906;-71
2024/04/15 10:46:34;;;;;;;8.80;5.60;;;;;;;16.34;65.77;95751.72;5365705;26;20480;-71
2024/04/15 10:49:03;;;;;;;5.00;4.40;;;;;;;16.19;65.86;95742.31;5358887;26;21516;-70
2024/04/15 10:51:28;;;;;;;8.93;4.50;;;;;;;15.97;66.97;95736.03;5354385;26;20345;-71
2024/04/15 10:53:54;;;;;;;14.03;6.43;;;;;;;15.88;68.43;95729.63;5365164;26;20447;-70
2024/04/15 10:56:19;;;;;;;10.20;5.47;;;;;;;16.05;67.23;95724.84;5364042;26;20279;-71
2024/04/15 10:58:45;;;;;;;6.47;4.80;;;;;;;16.14;66.90;95724.16;5366628;26;20276;-71
2024/04/15 11:01:17;;;;;;;6.23;5.03;;;;;;;16.30;66.75;95724.66;5366659;26;20424;-70
2024/04/15 11:03:43;;;;;;;6.90;5.07;;;;;;;16.05;66.63;95724.84;5369669;26;20268;-70
2024/04/15 11:06:11;;;;;;;6.73;5.00;;;;;;;16.02;66.96;95710.03;5370987;26;20467;-70
2024/04/15 11:08:37;;;;;;;6.10;4.67;;;;;;;15.98;67.55;95699.81;5367585;26;20520;-70
2024/04/15 11:11:02;;;;;;;7.40;5.03;;;;;;;15.89;66.64;95690.75;5366204;26;20463;-71
2024/04/15 11:13:28;;;;;;;6.90;5.87;;;;;;;16.12;66.24;95688.16;5357097;26;21151;-70
2024/04/15 11:15:56;;;;;;;9.80;6.30;;;;;;;16.20;66.66;95678.66;5345491;26;20821;-67
2024/04/15 11:18:22;;;;;;;10.07;5.67;;;;;;;16.28;65.47;95672.78;5367371;26;20233;-67
2024/04/15 11:20:49;;;;;;;8.87;5.20;;;;;;;16.48;64.24;95663.25;5369489;26;20565;-67
2024/04/15 11:23:14;;;;;;;5.80;5.17;;;;;;;16.61;65.01;95647.25;5366175;26;20500;-68
2024/04/15 11:25:43;;;;;;;6.83;6.10;;;;;;;16.62;65.10;95644.44;5368618;26;20459;-68